createdAt,value
2023-01-03T00:02:24.313Z,87.86
2023-01-03T00:04:51.729Z,87.91
2023-01-03T00:07:33.856Z,88.10
2023-01-03T00:10:01.890Z,87.44
2023-01-03T00:12:31.278Z,86.77
2023-01-03T00:14:59.478Z,86.85
2023-01-03T00:17:26.891Z,87.13
2023-01-03T00:19:54.374Z,86.48
2023-01-03T00:22:23.252Z,86.38
2023-01-03T00:24:50.679Z,86.56
2023-01-03T00:27:18.271Z,85.88
2023-01-03T00:29:45.653Z,86.31
2023-01-03T00:32:13.674Z,86.20
2023-01-03T00:34:41.036Z,86.43
2023-01-03T00:37:08.410Z,86.49
2023-01-03T00:39:37.145Z,86.28
2023-01-03T00:42:04.565Z,87.03
2023-01-03T00:44:32.059Z,87.34
2023-01-03T00:46:59.582Z,87.82
2023-01-03T00:49:26.971Z,87.90
2023-01-03T00:51:54.644Z,88.12
2023-01-03T00:54:23.288Z,88.27
2023-01-03T00:56:52.895Z,88.75
2023-01-03T00:59:22.664Z,88.52
2023-01-03T01:01:51.908Z,89.64
2023-01-03T01:04:21.891Z,88.23
2023-01-03T01:06:51.625Z,88.59
2023-01-03T01:09:21.201Z,88.07
2023-01-03T01:11:49.073Z,89.00
2023-01-03T01:14:22.658Z,88.14
2023-01-03T01:16:52.101Z,87.35
2023-01-03T01:19:21.358Z,87.34
2023-01-03T01:21:48.862Z,87.22
2023-01-03T01:24:18.167Z,87.52
2023-01-03T01:26:46.170Z,88.12
2023-01-03T01:29:15.071Z,87.20
2023-01-03T01:31:46.305Z,86.61
2023-01-03T01:34:13.975Z,85.85
2023-01-03T01:36:43.332Z,86.25
2023-01-03T01:39:14.322Z,85.99
2023-01-03T01:41:59.956Z,85.17
2023-01-03T01:44:53.092Z,84.19
2023-01-03T01:47:28.451Z,83.93
2023-01-03T01:50:01.694Z,84.32
2023-01-03T01:52:31.146Z,84.20
2023-01-03T01:54:59.859Z,83.47
2023-01-03T01:57:27.536Z,83.24
2023-01-03T01:59:54.886Z,82.73
2023-01-03T02:02:24.875Z,83.58
2023-01-03T02:04:55.942Z,82.60
2023-01-03T02:07:24.482Z,82.48
2023-01-03T02:09:56.484Z,82.11
2023-01-03T02:12:49.476Z,81.43
2023-01-03T02:15:30.070Z,81.63
2023-01-03T02:18:11.031Z,81.96
2023-01-03T02:20:58.693Z,81.80
2023-01-03T02:23:45.033Z,81.07
2023-01-03T02:26:53.619Z,81.69
2023-01-03T02:30:19.927Z,80.81
2023-01-03T02:32:53.918Z,80.67
2023-01-03T02:35:30.211Z,80.78
2023-01-03T02:38:03.157Z,80.59
2023-01-03T02:40:38.076Z,81.00
2023-01-03T02:43:09.342Z,80.84
2023-01-03T02:45:53.733Z,81.73
2023-01-03T02:48:31.287Z,80.89
2023-01-03T02:51:03.041Z,80.24
2023-01-03T02:53:34.696Z,80.27
2023-01-03T02:56:07.137Z,80.35
2023-01-03T02:58:37.804Z,80.12
2023-01-03T03:01:08.273Z,79.57
2023-01-03T03:03:39.799Z,79.53
2023-01-03T03:06:13.522Z,79.40
2023-01-03T03:08:40.941Z,78.90
2023-01-03T03:11:25.909Z,79.12
2023-01-03T03:13:57.845Z,78.87
2023-01-03T03:16:42.371Z,78.74
2023-01-03T03:19:35.316Z,77.80
2023-01-03T03:22:29.188Z,78.45
2023-01-03T03:25:00.372Z,77.96
2023-01-03T03:27:48.506Z,77.98
2023-01-03T03:30:18.843Z,77.74
2023-01-03T03:32:50.071Z,78.15
2023-01-03T03:35:24.341Z,78.18
2023-01-03T03:37:56.635Z,78.22
2023-01-03T03:40:44.066Z,77.49
2023-01-03T03:43:36.448Z,77.75
2023-01-03T03:46:09.260Z,78.38
2023-01-03T03:49:01.073Z,78.39
2023-01-03T03:51:33.639Z,78.12
2023-01-03T03:54:05.194Z,78.17
2023-01-03T03:56:36.930Z,77.95
2023-01-03T03:59:08.792Z,77.87
2023-01-03T04:01:39.957Z,77.78
2023-01-03T04:04:13.150Z,77.63
2023-01-03T04:06:45.370Z,76.91
2023-01-03T04:09:13.043Z,76.83
2023-01-03T04:11:41.176Z,76.33
2023-01-03T04:14:08.538Z,76.04
2023-01-03T04:16:37.552Z,75.74
2023-01-03T04:19:05.192Z,75.48
2023-01-03T04:21:33.505Z,75.93
2023-01-03T04:24:02.212Z,75.54
2023-01-03T04:26:29.632Z,75.53
2023-01-03T04:28:57.055Z,75.38
2023-01-03T04:31:24.561Z,75.50
2023-01-03T04:33:53.831Z,75.29
2023-01-03T04:36:21.370Z,75.46
2023-01-03T04:38:49.032Z,75.19
2023-01-03T04:41:17.841Z,75.48
2023-01-03T04:44:02.504Z,75.66
2023-01-03T04:46:30.911Z,75.86
2023-01-03T04:48:58.383Z,75.81
2023-01-03T04:51:25.982Z,75.18
2023-01-03T04:53:53.409Z,75.43
2023-01-03T04:56:26.606Z,75.50
2023-01-03T04:58:54.022Z,74.99
2023-01-03T05:01:21.604Z,75.02
2023-01-03T05:03:49.167Z,74.96
2023-01-03T05:06:17.297Z,74.34
2023-01-03T05:08:45.641Z,74.21
2023-01-03T05:11:13.443Z,73.96
2023-01-03T05:13:42.141Z,73.70
2023-01-03T05:19:03.166Z,73.77
2023-01-03T05:21:48.317Z,73.68
2023-01-03T05:24:33.759Z,73.05
2023-01-03T05:27:03.954Z,73.21
2023-01-03T05:29:36.024Z,72.86
2023-01-03T05:32:03.548Z,72.99
2023-01-03T05:34:30.978Z,73.13
2023-01-03T05:36:58.414Z,73.05
2023-01-03T05:39:25.810Z,73.05
2023-01-03T05:42:02.388Z,73.32
2023-01-03T05:44:31.322Z,73.64
2023-01-03T05:47:01.132Z,74.49
2023-01-03T05:49:28.773Z,73.63
2023-01-03T05:51:56.155Z,74.25
2023-01-03T05:54:23.536Z,73.87
2023-01-03T05:56:51.466Z,74.19
2023-01-03T05:59:19.117Z,74.70
2023-01-03T06:01:46.586Z,75.40
2023-01-03T06:04:15.433Z,74.22
2023-01-03T06:06:42.870Z,74.25
2023-01-03T06:09:10.285Z,74.88
2023-01-03T06:11:37.690Z,74.36
2023-01-03T06:14:05.047Z,74.45
2023-01-03T06:16:50.176Z,74.42
2023-01-03T06:19:18.917Z,74.74
2023-01-03T06:21:46.356Z,74.82
2023-01-03T06:24:13.726Z,74.64
2023-01-03T06:26:41.158Z,74.57
2023-01-03T06:29:09.476Z,74.12
2023-01-03T06:31:37.182Z,74.04
2023-01-03T06:34:04.879Z,74.07
2023-01-03T06:36:34.310Z,74.23
2023-01-03T06:39:01.902Z,74.56
2023-01-03T06:41:29.260Z,73.52
2023-01-03T06:43:56.695Z,73.72
2023-01-03T06:46:41.723Z,74.35
2023-01-03T06:49:33.562Z,74.15
2023-01-03T06:52:21.217Z,73.77
2023-01-03T06:54:48.844Z,74.30
2023-01-03T06:57:26.329Z,74.53
2023-01-03T06:59:55.225Z,74.38
2023-01-03T07:02:22.773Z,74.65
2023-01-03T07:04:50.364Z,74.32
2023-01-03T07:07:19.127Z,74.87
2023-01-03T07:09:46.482Z,74.44
2023-01-03T07:15:23.350Z,74.73
2023-01-03T07:17:50.903Z,75.08
2023-01-03T07:20:18.286Z,75.41
2023-01-03T07:22:46.983Z,75.22
2023-01-03T07:25:14.428Z,75.56
2023-01-03T07:27:41.781Z,75.15
2023-01-03T07:30:10.550Z,75.44
2023-01-03T07:32:37.999Z,76.24
2023-01-03T07:35:06.372Z,76.01
2023-01-03T07:37:33.778Z,76.68
2023-01-03T07:40:02.496Z,77.05
2023-01-03T07:42:55.669Z,77.02
2023-01-03T07:45:23.058Z,76.86
2023-01-03T07:47:50.450Z,76.81
2023-01-03T07:50:18.069Z,77.41
2023-01-03T07:52:45.453Z,77.30
2023-01-03T07:55:14.252Z,77.55
2023-01-03T07:57:41.639Z,77.88
2023-01-03T08:00:10.277Z,77.75
2023-01-03T08:02:37.778Z,77.87
2023-01-03T08:05:05.845Z,77.24
2023-01-03T08:07:33.205Z,77.97
2023-01-03T08:10:17.849Z,78.25
2023-01-03T08:13:04.532Z,77.98
2023-01-03T08:15:32.010Z,77.73
2023-01-03T08:17:59.378Z,77.78
2023-01-03T08:20:26.871Z,78.12
2023-01-03T08:22:54.320Z,77.57
2023-01-03T08:25:21.894Z,77.84
2023-01-03T08:27:50.632Z,77.23
2023-01-03T08:30:18.324Z,76.41
2023-01-03T08:32:45.889Z,76.52
2023-01-03T08:35:13.391Z,76.29
2023-01-03T08:37:40.797Z,75.60
2023-01-03T08:40:11.142Z,75.50
2023-01-03T08:42:39.069Z,75.44
2023-01-03T08:45:12.490Z,75.15
2023-01-03T08:47:40.489Z,74.65
2023-01-03T08:50:09.459Z,74.17
2023-01-03T08:52:36.873Z,73.70
2023-01-03T08:55:05.197Z,74.36
2023-01-03T08:57:33.077Z,73.48
2023-01-03T09:00:00.456Z,72.98
2023-01-03T09:02:29.526Z,72.38
2023-01-03T09:04:57.054Z,73.02
2023-01-03T09:07:24.417Z,73.01
2023-01-03T09:09:51.789Z,72.41
2023-01-03T09:12:19.151Z,72.32
2023-01-03T09:14:46.546Z,72.25
2023-01-03T09:17:13.971Z,71.73
2023-01-03T09:19:43.522Z,71.50
2023-01-03T09:22:10.940Z,71.15
2023-01-03T09:24:38.298Z,71.09
2023-01-03T09:27:05.717Z,70.84
2023-01-03T09:29:33.106Z,70.28
2023-01-03T09:32:03.260Z,69.71
2023-01-03T09:34:30.759Z,70.49
2023-01-03T09:36:59.444Z,69.32
2023-01-03T09:39:26.859Z,69.09
2023-01-03T09:42:08.257Z,69.11
2023-01-03T09:44:35.727Z,68.49
2023-01-03T09:47:04.131Z,68.15
2023-01-03T09:49:31.878Z,68.02
2023-01-03T09:52:18.106Z,66.79
2023-01-03T09:55:03.823Z,67.32
2023-01-03T09:57:52.044Z,67.14
2023-01-03T10:00:46.229Z,67.15
2023-01-03T10:03:50.928Z,67.10
2023-01-03T10:06:32.612Z,66.63
2023-01-03T10:09:14.294Z,66.72
2023-01-03T10:11:51.965Z,66.93
2023-01-03T10:14:37.544Z,65.57
2023-01-03T10:17:14.529Z,64.99
2023-01-03T10:20:10.408Z,64.98
2023-01-03T10:22:39.943Z,64.92
2023-01-03T10:25:13.692Z,63.82
2023-01-03T10:27:46.223Z,63.09
2023-01-03T10:30:17.932Z,63.17
2023-01-03T10:33:06.915Z,62.95
2023-01-03T10:35:36.391Z,62.42
2023-01-03T10:38:04.417Z,62.93
2023-01-03T10:40:35.665Z,62.56
2023-01-03T10:43:11.713Z,62.37
2023-01-03T10:45:52.555Z,62.47
2023-01-03T10:48:20.156Z,61.77
2023-01-03T10:50:47.584Z,61.53
2023-01-03T10:53:18.611Z,62.30
2023-01-03T10:55:50.095Z,61.37
2023-01-03T10:58:23.056Z,61.84
2023-01-03T11:00:50.539Z,62.69
2023-01-03T11:03:20.456Z,61.23
2023-01-03T11:05:51.135Z,60.80
2023-01-03T11:08:22.403Z,60.64
2023-01-03T11:10:54.654Z,57.99
2023-01-03T11:13:30.436Z,58.38
2023-01-03T11:15:59.606Z,59.20
2023-01-03T11:18:28.290Z,59.19
2023-01-03T11:21:07.103Z,59.15
2023-01-03T11:23:54.421Z,60.48
2023-01-03T11:26:33.485Z,59.86
2023-01-03T11:29:18.409Z,60.33
2023-01-03T11:31:53.995Z,60.46
2023-01-03T11:35:20.831Z,61.12
2023-01-03T11:37:45.043Z,61.86
2023-01-03T11:40:20.199Z,60.43
2023-01-03T11:43:04.926Z,60.60
2023-01-03T11:45:53.752Z,61.05
2023-01-03T11:48:41.708Z,61.12
2023-01-03T11:51:14.050Z,61.05
2023-01-03T11:53:56.602Z,60.51
2023-01-03T11:56:29.860Z,60.53
2023-01-03T11:59:15.931Z,60.95
2023-01-03T12:01:55.954Z,60.53
2023-01-03T12:04:27.498Z,59.72
2023-01-03T12:07:45.853Z,59.50
2023-01-03T12:10:02.547Z,60.28
2023-01-03T12:12:49.699Z,60.31
2023-01-03T12:15:23.872Z,61.09
2023-01-03T12:17:58.038Z,61.97
2023-01-03T12:20:29.079Z,62.49
2023-01-03T12:23:01.923Z,62.18
2023-01-03T12:25:32.808Z,62.52
2023-01-03T12:28:05.126Z,63.47
2023-01-03T12:30:42.833Z,62.68
2023-01-03T12:33:23.404Z,62.54
2023-01-03T12:35:57.234Z,63.09
2023-01-03T12:38:30.252Z,62.99
2023-01-03T12:41:02.401Z,63.17
2023-01-03T12:43:37.011Z,63.58
2023-01-03T12:46:13.102Z,64.05
2023-01-03T12:48:51.188Z,64.15
2023-01-03T12:51:21.220Z,64.30
2023-01-03T12:53:58.457Z,64.47
2023-01-03T12:56:41.980Z,63.75
2023-01-03T12:59:23.649Z,63.51
2023-01-03T13:01:58.993Z,63.17
2023-01-03T13:04:34.404Z,62.75
2023-01-03T13:07:07.019Z,62.06
2023-01-03T13:09:37.295Z,61.54
2023-01-03T13:12:08.518Z,60.96
2023-01-03T13:14:54.108Z,60.57
2023-01-03T13:17:25.129Z,60.26
2023-01-03T13:19:55.402Z,61.04
2023-01-03T13:22:35.120Z,60.93
2023-01-03T13:25:38.483Z,61.51
2023-01-03T13:28:29.605Z,61.21
2023-01-03T13:31:45.127Z,62.13
2023-01-03T13:34:19.255Z,62.53
2023-01-03T13:37:15.066Z,62.65
2023-01-03T13:39:48.663Z,63.00
2023-01-03T13:42:21.569Z,62.69
2023-01-03T13:44:48.985Z,63.22
2023-01-03T13:47:30.895Z,63.51
2023-01-03T13:50:00.133Z,63.27
2023-01-03T13:52:39.051Z,62.86
2023-01-03T13:55:27.295Z,62.64
2023-01-03T13:57:55.051Z,62.82
2023-01-03T14:00:23.924Z,63.38
2023-01-03T14:03:13.564Z,63.42
2023-01-03T14:06:19.844Z,64.07
2023-01-03T14:09:25.365Z,64.49
2023-01-03T14:12:26.043Z,64.99
2023-01-03T14:14:56.074Z,64.91
2023-01-03T14:17:28.209Z,64.72
2023-01-03T14:19:59.601Z,64.47
2023-01-03T14:22:38.163Z,64.59
2023-01-03T14:25:07.603Z,64.17
2023-01-03T14:27:39.251Z,64.30
2023-01-03T14:30:21.333Z,64.23
2023-01-03T14:32:48.922Z,63.82
2023-01-03T14:35:38.705Z,64.08
2023-01-03T14:38:22.081Z,64.52
2023-01-03T14:40:49.482Z,64.26
2023-01-03T14:43:21.430Z,64.86
2023-01-03T14:45:53.214Z,64.71
2023-01-03T14:48:21.503Z,64.97
2023-01-03T14:50:49.379Z,66.42
2023-01-03T14:53:18.566Z,65.88
2023-01-03T14:55:52.454Z,65.64
2023-01-03T14:58:28.749Z,66.14
2023-01-03T15:00:57.359Z,66.03
2023-01-03T15:03:26.171Z,66.99
2023-01-03T15:05:55.408Z,66.61
2023-01-03T15:08:27.678Z,65.96
2023-01-03T15:10:59.535Z,65.57
2023-01-03T15:13:31.453Z,65.76
2023-01-03T15:16:01.162Z,67.04
2023-01-03T15:18:32.893Z,66.85
2023-01-03T15:21:02.314Z,66.51
2023-01-03T15:23:38.723Z,66.86
2023-01-03T15:26:07.657Z,66.86
2023-01-03T15:28:38.543Z,67.66
2023-01-03T15:31:25.266Z,67.53
2023-01-03T15:34:12.165Z,68.26
2023-01-03T15:36:42.306Z,67.81
2023-01-03T15:39:18.470Z,68.13
2023-01-03T15:42:35.011Z,68.43
2023-01-03T15:44:51.408Z,68.88
2023-01-03T15:47:20.712Z,68.46
2023-01-03T15:49:50.997Z,68.49
2023-01-03T15:52:18.399Z,68.25
2023-01-03T15:54:47.404Z,67.85
2023-01-03T15:57:20.424Z,67.84
2023-01-03T15:59:51.866Z,68.88
2023-01-03T16:02:21.580Z,69.69
2023-01-03T16:04:50.075Z,69.82
2023-01-03T16:07:17.624Z,69.05
2023-01-03T16:09:46.993Z,69.59
2023-01-03T16:12:18.588Z,68.78
2023-01-03T16:14:49.631Z,69.13
2023-01-03T16:17:24.532Z,70.03
2023-01-03T16:19:53.176Z,69.86
2023-01-03T16:22:34.536Z,70.74
2023-01-03T16:25:05.277Z,71.93
2023-01-03T16:27:33.455Z,72.24
2023-01-03T16:30:00.761Z,73.07
2023-01-03T16:32:30.579Z,73.72
2023-01-03T16:35:00.556Z,73.84
2023-01-03T16:37:28.563Z,73.22
2023-01-03T16:39:56.112Z,74.05
2023-01-03T16:42:27.451Z,72.23
2023-01-03T16:44:55.650Z,73.18
2023-01-03T16:47:24.893Z,72.84
2023-01-03T16:49:55.773Z,73.52
2023-01-03T16:52:26.905Z,74.36
2023-01-03T16:54:55.248Z,75.63
2023-01-03T16:57:23.497Z,74.70
2023-01-03T16:59:52.203Z,74.45
2023-01-03T17:02:19.898Z,74.58
2023-01-03T17:04:47.373Z,75.01
2023-01-03T17:07:19.499Z,75.66
2023-01-03T17:09:48.934Z,74.78
2023-01-03T17:12:20.985Z,75.59
2023-01-03T17:14:49.780Z,76.08
2023-01-03T17:17:20.340Z,76.75
2023-01-03T17:20:05.549Z,75.68
2023-01-03T17:22:33.568Z,75.39
2023-01-03T17:25:00.990Z,74.54
2023-01-03T17:27:32.766Z,74.50
2023-01-03T17:30:03.068Z,75.21
2023-01-03T17:32:31.789Z,74.71
2023-01-03T17:34:59.182Z,74.77
2023-01-03T17:37:27.046Z,75.16
2023-01-03T17:39:56.889Z,74.54
2023-01-03T17:42:26.271Z,74.46
2023-01-03T17:45:11.867Z,74.38
2023-01-03T17:48:00.258Z,73.35
2023-01-03T17:50:29.834Z,72.74
2023-01-03T17:52:58.514Z,71.82
2023-01-03T17:55:29.336Z,71.65
2023-01-03T17:57:57.892Z,71.30
2023-01-03T18:00:27.026Z,71.29
2023-01-03T18:02:57.002Z,71.80
2023-01-03T18:05:28.630Z,71.77
2023-01-03T18:07:57.120Z,72.02
2023-01-03T18:10:31.066Z,72.16
2023-01-03T18:12:58.733Z,73.08
2023-01-03T18:15:26.107Z,73.60
2023-01-03T18:17:54.181Z,73.69
2023-01-03T18:20:23.001Z,73.72
2023-01-03T18:22:50.613Z,74.01
2023-01-03T18:25:22.310Z,74.43
2023-01-03T18:27:54.595Z,73.05
2023-01-03T18:30:21.956Z,72.90
2023-01-03T18:32:49.598Z,73.44
2023-01-03T18:35:26.572Z,72.81
2023-01-03T18:37:57.329Z,72.71
2023-01-03T18:40:27.901Z,71.80
2023-01-03T18:43:12.617Z,72.67
2023-01-03T18:45:41.853Z,72.75
2023-01-03T18:48:14.323Z,72.47
2023-01-03T18:50:41.707Z,72.68
2023-01-03T18:53:17.272Z,72.70
2023-01-03T18:55:44.683Z,72.36
2023-01-03T18:58:31.558Z,72.33
2023-01-03T19:00:58.943Z,72.84
2023-01-03T19:03:29.908Z,73.87
2023-01-03T19:05:59.283Z,73.60
2023-01-03T19:08:31.678Z,73.94
2023-01-03T19:11:08.191Z,72.99
2023-01-03T19:13:51.150Z,72.21
2023-01-03T19:16:20.737Z,73.14
2023-01-03T19:18:48.607Z,72.83
2023-01-03T19:21:17.232Z,73.09
2023-01-03T19:23:48.380Z,72.90
2023-01-03T19:26:26.489Z,72.62
2023-01-03T19:28:56.277Z,72.39
2023-01-03T19:31:25.033Z,72.67
2023-01-03T19:33:52.452Z,72.55
2023-01-03T19:36:22.205Z,72.40
2023-01-03T19:38:50.911Z,72.38
2023-01-03T19:41:20.159Z,72.54
2023-01-03T19:46:39.930Z,74.52
2023-01-03T19:49:15.220Z,74.02
2023-01-03T19:51:42.615Z,75.62
2023-01-03T19:54:14.954Z,75.79
2023-01-03T19:56:42.406Z,76.72
2023-01-03T19:59:23.910Z,77.00
2023-01-03T20:02:23.298Z,75.22
2023-01-03T20:04:38.799Z,75.65
2023-01-03T20:07:12.307Z,74.47
2023-01-03T20:09:41.231Z,74.01
2023-01-03T20:12:14.675Z,74.50
2023-01-03T20:14:43.197Z,74.91
2023-01-03T20:17:20.661Z,74.53
2023-01-03T20:19:48.209Z,75.00
2023-01-03T20:22:52.977Z,74.56
2023-01-03T20:25:05.977Z,74.05
2023-01-03T20:27:36.743Z,74.58
2023-01-03T20:30:14.212Z,75.11
2023-01-03T20:32:41.556Z,74.71
2023-01-03T20:35:56.463Z,74.71
2023-01-03T20:38:00.950Z,74.33
2023-01-03T20:40:29.736Z,74.79
2023-01-03T20:42:57.459Z,74.63
2023-01-03T20:45:24.892Z,74.27
2023-01-03T20:47:54.208Z,73.34
2023-01-03T20:50:23.484Z,74.28
2023-01-03T20:52:51.327Z,74.68
2023-01-03T20:55:20.561Z,74.30
2023-01-03T20:57:50.372Z,74.37
2023-01-03T21:00:24.914Z,74.62
2023-01-03T21:02:53.855Z,73.92
2023-01-03T21:05:23.375Z,73.67
2023-01-03T21:08:08.371Z,73.43
2023-01-03T21:10:39.406Z,73.44
2023-01-03T21:13:08.920Z,72.68
2023-01-03T21:15:36.533Z,71.94
2023-01-03T21:18:04.708Z,72.10
2023-01-03T21:20:33.323Z,72.81
2023-01-03T21:23:00.713Z,71.97
2023-01-03T21:25:29.899Z,71.01
2023-01-03T21:27:57.369Z,71.59
2023-01-03T21:30:27.586Z,71.80
2023-01-03T21:32:54.972Z,72.40
2023-01-03T21:35:24.916Z,71.80
2023-01-03T21:37:54.934Z,72.02
2023-01-03T21:40:24.730Z,72.63
2023-01-03T21:43:05.091Z,72.22
2023-01-03T21:45:35.990Z,71.91
2023-01-03T21:48:05.499Z,71.59
2023-01-03T21:50:33.959Z,72.53
2023-01-03T21:53:01.309Z,72.34
2023-01-03T21:55:30.712Z,72.31
2023-01-03T21:57:58.767Z,72.46
2023-01-03T22:00:26.166Z,72.76
2023-01-03T22:03:12.256Z,73.33
2023-01-03T22:05:39.674Z,73.98
2023-01-03T22:08:07.368Z,74.11
2023-01-03T22:10:36.952Z,73.98
2023-01-03T22:13:07.498Z,74.46
2023-01-03T22:15:36.716Z,74.88
2023-01-03T22:18:07.618Z,75.27
2023-01-03T22:20:38.873Z,75.60
2023-01-03T22:23:08.283Z,75.43
2023-01-03T22:25:35.685Z,75.61
2023-01-03T22:28:03.436Z,75.78
2023-01-03T22:30:31.298Z,75.88
2023-01-03T22:32:58.976Z,76.90
2023-01-03T22:35:27.757Z,76.71
2023-01-03T22:37:56.474Z,77.04
2023-01-03T22:40:24.180Z,76.17
2023-01-03T22:42:51.615Z,75.73
2023-01-03T22:45:18.996Z,76.00
2023-01-03T22:47:46.367Z,75.10
2023-01-03T22:50:13.773Z,75.02
2023-01-03T22:52:42.460Z,75.07
2023-01-03T22:55:11.616Z,74.67
2023-01-03T22:57:39.032Z,75.52
2023-01-03T23:00:10.379Z,74.96
2023-01-03T23:02:41.886Z,75.71
2023-01-03T23:05:10.028Z,75.23
2023-01-03T23:07:39.273Z,76.36
2023-01-03T23:10:10.170Z,76.28
2023-01-03T23:12:55.134Z,76.46
2023-01-03T23:15:22.490Z,76.74
2023-01-03T23:17:58.701Z,76.47
2023-01-03T23:20:28.531Z,76.15
2023-01-03T23:22:59.817Z,76.87
2023-01-03T23:25:29.051Z,76.90
2023-01-03T23:27:56.759Z,77.02
2023-01-03T23:30:24.189Z,77.24
2023-01-03T23:32:51.645Z,77.60
2023-01-03T23:35:19.042Z,78.09
2023-01-03T23:37:47.573Z,78.71
2023-01-03T23:40:15.294Z,78.48
2023-01-03T23:42:44.009Z,78.53
2023-01-03T23:45:11.695Z,78.74
2023-01-03T23:47:39.029Z,79.11
2023-01-03T23:50:06.752Z,78.74
2023-01-03T23:52:35.116Z,77.79
2023-01-03T23:55:08.497Z,77.69
2023-01-03T23:57:39.692Z,76.98
